Time;durP1;ratioP1;P1;durP2;ratioP2;P2;SDS_P1;SDS_P2;PMS_P1;PMS_P2;Temp;Humidity;BMP_temperature;BMP_pressure;BME280_temperature;BME280_humidity;BME280_pressure;Samples;Min_cycle;Max_cycle;Signal;HPM_P1;HPM_P2
2022/08/21 00:01:47;;;;;;;7.50;6.70;;;27.00;69.90;;;;;;4996921;28;20111;-80
2022/08/21 00:04:13;;;;;;;8.43;6.57;;;26.90;69.90;;;;;;5014630;28;20496;-80
2022/08/21 00:06:39;;;;;;;9.45;6.30;;;26.90;70.00;;;;;;4997162;28;20061;-85
2022/08/21 00:09:07;;;;;;;8.65;6.70;;;26.80;70.00;;;;;;4996533;28;20026;-79
2022/08/21 00:11:35;;;;;;;8.38;6.78;;;26.90;70.20;;;;;;4996831;28;20037;-81
2022/08/21 00:14:01;;;;;;;9.50;7.30;;;27.00;69.90;;;;;;5014362;28;20049;-79
2022/08/21 00:16:27;;;;;;;9.32;6.72;;;27.10;69.50;;;;;;4996409;28;20030;-80
2022/08/21 00:18:52;;;;;;;8.90;7.30;;;27.10;69.50;;;;;;5014037;28;20018;-81
2022/08/21 00:21:18;;;;;;;8.70;6.47;;;27.00;69.60;;;;;;5014261;28;20049;-81
2022/08/21 00:23:44;;;;;;;8.93;7.25;;;26.90;69.30;;;;;;5013905;28;20026;-81
2022/08/21 00:26:10;;;;;;;7.93;6.63;;;26.80;70.10;;;;;;5014110;28;20028;-81
2022/08/21 00:28:36;;;;;;;7.70;6.90;;;26.80;70.20;;;;;;5014208;28;20026;-82
2022/08/21 00:31:03;;;;;;;7.55;6.10;;;26.70;70.00;;;;;;4996490;28;20038;-84
2022/08/21 00:33:30;;;;;;;9.02;6.70;;;26.80;70.20;;;;;;5014114;28;20080;-85
2022/08/21 00:35:56;;;;;;;9.02;7.00;;;26.80;70.20;;;;;;4996550;28;20022;-84
2022/08/21 00:38:22;;;;;;;8.93;7.82;;;26.60;70.80;;;;;;4996623;28;20028;-79
2022/08/21 00:40:56;;;;;;;8.32;6.90;;;26.70;70.60;;;;;;5014302;28;20036;-79
2022/08/21 00:43:29;;;;;;;8.43;7.45;;;26.40;70.90;;;;;;5014134;28;20033;-80
2022/08/21 00:45:56;;;;;;;8.77;7.38;;;26.60;71.00;;;;;;4996385;28;20117;-77
2022/08/21 00:48:23;;;;;;;6.93;6.22;;;26.70;70.40;;;;;;5014041;28;20037;-76
2022/08/21 00:51:06;;;;;;;8.25;6.75;;;26.80;70.20;;;;;;5013720;28;20034;-79
2022/08/21 00:53:34;;;;;;;7.55;6.72;;;27.00;69.70;;;;;;4996294;28;20022;-81
2022/08/21 00:56:02;;;;;;;9.32;7.28;;;26.90;69.90;;;;;;4995990;28;20030;-82
2022/08/21 00:58:30;;;;;;;9.10;7.20;;;26.80;70.30;;;;;;5013619;28;20018;-85
2022/08/21 01:00:56;;;;;;;8.68;6.90;;;26.80;69.90;;;;;;4996346;28;20026;-77
2022/08/21 01:03:25;;;;;;;8.60;7.35;;;26.70;70.20;;;;;;5013829;28;20018;-79
2022/08/21 01:05:51;;;;;;;9.10;8.13;;;26.60;70.50;;;;;;5014778;28;20026;-81
2022/08/21 01:08:18;;;;;;;8.80;7.60;;;26.70;70.10;;;;;;5017870;28;20030;-81
2022/08/21 01:10:46;;;;;;;8.23;7.30;;;26.80;69.90;;;;;;5017674;28;20041;-78
2022/08/21 01:13:16;;;;;;;14.43;7.82;;;26.80;70.10;;;;;;5000603;28;20026;-83
2022/08/21 01:15:44;;;;;;;10.30;8.55;;;26.90;69.60;;;;;;5018067;28;20025;-85
2022/08/21 01:18:11;;;;;;;10.35;9.07;;;26.80;69.90;;;;;;5017547;28;20065;-83
2022/08/21 01:20:41;;;;;;;9.70;8.70;;;26.70;70.30;;;;;;5017429;28;20357;-79
2022/08/21 01:23:07;;;;;;;10.90;9.77;;;26.50;70.50;;;;;;5016930;28;20072;-83
2022/08/21 01:25:34;;;;;;;13.10;9.70;;;26.40;71.10;;;;;;4999749;28;20548;-79
2022/08/21 01:28:06;;;;;;;10.25;9.15;;;26.40;71.40;;;;;;5015557;28;20018;-78
2022/08/21 01:30:34;;;;;;;11.68;9.90;;;26.50;71.00;;;;;;5016304;28;20041;-81
2022/08/21 01:33:00;;;;;;;11.13;9.77;;;26.50;71.20;;;;;;4999192;28;20473;-82
2022/08/21 01:35:26;;;;;;;12.55;9.70;;;26.60;70.70;;;;;;4999506;28;20033;-84
2022/08/21 01:37:52;;;;;;;12.73;10.07;;;26.70;70.40;;;;;;5016581;28;20026;-76
2022/08/21 01:40:18;;;;;;;10.52;9.43;;;26.70;70.60;;;;;;5016488;28;20025;-83
2022/08/21 01:42:45;;;;;;;11.43;10.05;;;26.70;70.30;;;;;;5016503;28;20076;-77
2022/08/21 01:45:12;;;;;;;12.77;9.40;;;26.70;70.40;;;;;;5015891;28;20412;-77
2022/08/21 01:47:38;;;;;;;12.80;10.05;;;26.70;70.30;;;;;;5017316;28;20384;-87
2022/08/21 01:50:09;;;;;;;16.65;11.27;;;26.80;70.20;;;;;;5016531;28;20038;-79
2022/08/21 01:52:36;;;;;;;13.52;10.00;;;26.90;69.90;;;;;;5015144;28;20117;-78
2022/08/21 01:55:02;;;;;;;12.15;9.65;;;26.90;70.10;;;;;;5016371;28;20026;-78
2022/08/21 01:57:28;;;;;;;12.20;9.88;;;26.70;70.50;;;;;;4998504;28;20041;-79
2022/08/21 01:59:54;;;;;;;15.27;11.75;;;26.70;70.40;;;;;;5016094;28;20058;-82
2022/08/21 02:02:20;;;;;;;13.90;10.50;;;26.80;70.10;;;;;;5014482;28;20025;-78
2022/08/21 02:04:45;;;;;;;12.55;11.13;;;26.80;70.00;;;;;;5015553;28;20427;-79
2022/08/21 02:07:11;;;;;;;13.38;10.52;;;26.90;70.10;;;;;;5014992;28;20022;-76
2022/08/21 02:09:37;;;;;;;13.98;11.10;;;27.10;69.20;;;;;;5016083;28;20156;-78
2022/08/21 02:12:03;;;;;;;12.30;10.73;;;27.10;69.30;;;;;;5014811;28;20088;-79
2022/08/21 02:14:31;;;;;;;14.13;11.52;;;26.80;70.00;;;;;;5016162;28;20034;-81
2022/08/21 02:16:57;;;;;;;13.82;12.15;;;26.80;70.40;;;;;;5013869;28;20030;-82
2022/08/21 02:19:23;;;;;;;13.38;11.52;;;26.80;70.30;;;;;;5014594;28;20048;-78
2022/08/21 02:21:49;;;;;;;15.02;11.48;;;26.90;70.10;;;;;;5015752;28;20042;-80
2022/08/21 02:24:14;;;;;;;13.98;11.93;;;27.00;69.10;;;;;;5015059;28;20401;-79
2022/08/21 02:26:40;;;;;;;12.95;10.57;;;26.80;70.10;;;;;;4997619;28;20104;-85
2022/08/21 02:29:06;;;;;;;14.25;11.77;;;26.80;70.20;;;;;;5014285;28;20033;-82
2022/08/21 02:31:32;;;;;;;15.82;12.10;;;26.80;70.30;;;;;;5015878;28;20084;-80
2022/08/21 02:33:58;;;;;;;17.73;13.02;;;26.90;69.90;;;;;;5015480;28;20022;-84
2022/08/21 02:36:23;;;;;;;14.05;11.10;;;27.10;69.70;;;;;;5016004;28;20022;-78
2022/08/21 02:38:49;;;;;;;12.73;10.85;;;27.00;69.60;;;;;;5014806;28;20030;-81
2022/08/21 02:41:18;;;;;;;15.77;11.52;;;26.90;70.50;;;;;;5014745;28;20362;-76
2022/08/21 02:43:45;;;;;;;15.63;12.23;;;26.80;70.40;;;;;;5015255;28;20017;-76
2022/08/21 02:46:13;;;;;;;13.48;11.13;;;26.80;70.10;;;;;;5015474;28;20037;-77
2022/08/21 02:48:39;;;;;;;15.30;11.75;;;26.80;70.30;;;;;;5014086;28;20196;-78
2022/08/21 02:51:17;;;;;;;13.98;11.63;;;26.70;70.30;;;;;;5015425;28;20496;-82
2022/08/21 02:53:43;;;;;;;14.25;11.82;;;26.80;70.00;;;;;;5014614;28;20481;-76
2022/08/21 02:56:12;;;;;;;16.52;12.15;;;26.90;70.00;;;;;;5015472;28;20034;-84
2022/08/21 02:58:42;;;;;;;17.20;12.90;;;26.90;69.80;;;;;;5015394;28;20021;-78
2022/08/21 03:01:09;;;;;;;;;;;26.90;69.90;;;;;;5015876;28;20393;-80
2022/08/21 03:03:36;;;;;;;17.25;12.32;;;26.90;70.00;;;;;;5015541;28;20276;-80
2022/08/21 03:06:02;;;;;;;15.02;10.95;;;26.90;69.70;;;;;;5014322;28;20040;-81
2022/08/21 03:08:28;;;;;;;14.35;10.93;;;26.70;70.00;;;;;;5015785;28;20021;-83
2022/08/21 03:10:53;;;;;;;14.07;11.57;;;26.70;69.90;;;;;;5015343;28;20026;-80
2022/08/21 03:13:23;;;;;;;12.57;10.80;;;26.60;70.70;;;;;;4997845;28;20026;-79
2022/08/21 03:15:50;;;;;;;13.50;11.23;;;26.40;71.30;;;;;;5015044;28;20361;-79
2022/08/21 03:18:17;;;;;;;14.30;12.25;;;26.40;71.40;;;;;;5013941;28;20120;-82
2022/08/21 03:20:44;;;;;;;14.48;12.00;;;26.40;70.70;;;;;;5013951;28;20049;-89
2022/08/21 03:23:11;;;;;;;14.10;11.52;;;26.60;71.20;;;;;;5015300;28;20029;-79
2022/08/21 03:25:37;;;;;;;14.95;12.13;;;26.50;70.40;;;;;;5014908;28;20026;-77
2022/08/21 03:28:09;;;;;;;14.65;11.90;;;26.40;71.10;;;;;;5013707;28;20018;-77
2022/08/21 03:30:36;;;;;;;17.15;13.32;;;26.70;70.50;;;;;;5013471;28;20136;-76
2022/08/21 03:33:02;;;;;;;15.98;11.80;;;26.70;70.10;;;;;;5013852;28;20026;-77
2022/08/21 03:35:28;;;;;;;16.65;12.05;;;26.70;70.50;;;;;;5012287;28;20064;-81
2022/08/21 03:37:54;;;;;;;15.30;12.13;;;26.80;70.00;;;;;;5013129;28;20029;-77
2022/08/21 03:40:21;;;;;;;15.35;11.93;;;26.90;70.30;;;;;;5013430;28;20030;-82
2022/08/21 03:42:47;;;;;;;14.70;11.88;;;26.90;69.60;;;;;;5013066;28;20022;-81
2022/08/21 03:45:15;;;;;;;16.42;12.40;;;26.60;70.60;;;;;;5014435;28;20036;-82
2022/08/21 03:48:03;;;;;;;16.08;13.23;;;26.60;70.50;;;;;;5012858;28;20037;-78
2022/08/21 03:50:33;;;;;;;15.75;11.30;;;26.60;70.40;;;;;;5012904;28;20034;-77
2022/08/21 03:52:59;;;;;;;17.38;12.00;;;26.80;70.30;;;;;;5013613;28;20472;-88
2022/08/21 03:55:25;;;;;;;14.88;11.93;;;27.00;69.80;;;;;;5014170;28;20092;-81
2022/08/21 03:57:51;;;;;;;13.38;10.70;;;27.00;69.60;;;;;;5014325;28;20029;-81
2022/08/21 04:00:19;;;;;;;16.10;11.50;;;26.70;70.30;;;;;;5013204;28;20025;-81
2022/08/21 04:02:45;;;;;;;14.52;11.82;;;26.60;70.70;;;;;;5013626;28;20021;-80
2022/08/21 04:05:13;;;;;;;15.82;11.68;;;26.70;70.40;;;;;;5012830;28;20389;-77
2022/08/21 04:07:39;;;;;;;17.63;12.85;;;26.70;70.60;;;;;;5013050;28;20484;-81
2022/08/21 04:10:06;;;;;;;13.82;11.40;;;26.50;70.60;;;;;;5013552;28;20052;-81
2022/08/21 04:12:32;;;;;;;16.05;11.93;;;26.60;71.30;;;;;;5014168;28;20029;-83
2022/08/21 04:14:59;;;;;;;16.05;11.75;;;26.70;71.00;;;;;;4996460;28;20021;-77
2022/08/21 04:17:24;;;;;;;14.23;11.60;;;26.90;69.60;;;;;;5013502;28;20022;-76
2022/08/21 04:19:50;;;;;;;16.70;12.38;;;27.00;70.00;;;;;;5013860;28;20166;-78
2022/08/21 04:22:16;;;;;;;15.90;12.75;;;27.00;69.50;;;;;;5013541;28;20077;-78
2022/08/21 04:24:42;;;;;;;13.95;11.60;;;27.00;69.80;;;;;;5013374;28;20030;-77
2022/08/21 04:27:07;;;;;;;16.17;12.57;;;27.00;69.60;;;;;;5012738;28;20022;-82
2022/08/21 04:29:33;;;;;;;15.13;12.07;;;27.00;69.60;;;;;;5012863;28;20081;-82
2022/08/21 04:31:59;;;;;;;15.60;11.30;;;27.10;69.30;;;;;;4996418;28;20026;-78
2022/08/21 04:34:25;;;;;;;15.50;11.90;;;27.20;69.40;;;;;;5013129;28;20105;-76
2022/08/21 04:36:50;;;;;;;14.77;11.65;;;27.40;68.70;;;;;;5013807;28;20040;-76
2022/08/21 04:39:16;;;;;;;16.83;10.80;;;27.30;68.90;;;;;;5014249;28;20026;-76
2022/08/21 04:41:42;;;;;;;13.70;10.65;;;27.20;69.50;;;;;;5010471;28;20534;-78
2022/08/21 04:44:08;;;;;;;13.18;10.40;;;26.90;69.70;;;;;;5011950;28;20018;-79
2022/08/21 04:46:34;;;;;;;13.05;10.32;;;27.00;70.00;;;;;;5013693;28;20026;-78
2022/08/21 04:49:00;;;;;;;13.23;10.52;;;27.00;70.10;;;;;;5011195;28;20057;-77
2022/08/21 04:51:34;;;;;;;13.43;9.98;;;27.10;69.50;;;;;;5011862;28;20049;-84
2022/08/21 04:54:22;;;;;;;12.98;10.13;;;27.20;69.20;;;;;;4995890;28;20080;-81
2022/08/21 04:56:59;;;;;;;13.02;10.25;;;27.10;69.70;;;;;;4995377;28;20374;-78
2022/08/21 04:59:35;;;;;;;13.65;9.52;;;27.10;69.10;;;;;;5013084;28;20033;-83
2022/08/21 05:02:02;;;;;;;11.88;9.73;;;27.10;69.40;;;;;;5013235;28;20022;-77
2022/08/21 05:04:31;;;;;;;11.35;9.30;;;27.10;69.20;;;;;;4994573;28;20033;-76
2022/08/21 05:07:02;;;;;;;14.13;9.90;;;27.10;69.60;;;;;;5012656;28;20053;-79
2022/08/21 05:09:29;;;;;;;;;;;27.30;68.90;;;;;;4995278;28;20036;-80
2022/08/21 05:11:56;;;;;;;9.63;8.07;;;27.40;68.60;;;;;;4995956;28;19910;-76
2022/08/21 05:14:21;;;;;;;11.52;8.70;;;27.40;69.10;;;;;;5013040;28;20018;-77
2022/08/21 05:16:48;;;;;;;10.48;8.73;;;27.40;68.90;;;;;;5013074;28;20022;-76
2022/08/21 05:19:14;;;;;;;10.13;8.73;;;27.50;68.40;;;;;;5013687;28;20022;-82
2022/08/21 05:21:43;;;;;;;10.35;8.80;;;27.50;68.40;;;;;;4994734;28;20509;-77
2022/08/21 05:24:09;;;;;;;10.20;8.25;;;27.50;68.60;;;;;;4994489;28;20485;-77
2022/08/21 05:26:36;;;;;;;10.93;8.73;;;27.60;68.40;;;;;;5012579;28;20520;-76
2022/08/21 05:29:02;;;;;;;9.98;8.70;;;27.40;68.70;;;;;;4994171;28;20030;-76
2022/08/21 05:31:28;;;;;;;10.43;8.70;;;27.40;68.90;;;;;;5012902;28;20117;-81
2022/08/21 05:33:54;;;;;;;10.80;8.00;;;27.60;67.80;;;;;;5012753;28;20093;-89
2022/08/21 05:36:19;;;;;;;10.43;8.18;;;27.60;68.20;;;;;;5012664;28;20088;-79
2022/08/21 05:38:46;;;;;;;8.93;7.78;;;27.40;68.00;;;;;;4995167;28;20100;-83
2022/08/21 05:41:12;;;;;;;12.32;8.48;;;27.30;68.70;;;;;;5013191;28;20033;-80
2022/08/21 05:43:38;;;;;;;9.75;8.02;;;27.20;68.60;;;;;;4995258;28;20026;-81
2022/08/21 05:46:04;;;;;;;10.52;8.25;;;27.30;68.60;;;;;;4994333;28;20080;-82
2022/08/21 05:48:31;;;;;;;10.60;7.93;;;27.20;68.60;;;;;;5011977;28;20058;-75
2022/08/21 05:50:57;;;;;;;9.95;8.05;;;27.40;68.20;;;;;;5005414;28;20031;-78
2022/08/21 05:53:24;;;;;;;9.02;7.18;;;27.60;67.90;;;;;;4977144;28;20037;-78
2022/08/21 05:55:51;;;;;;;8.75;7.60;;;27.60;67.60;;;;;;4996980;28;20584;-77
2022/08/21 05:58:19;;;;;;;9.43;7.10;;;27.50;68.00;;;;;;4979455;28;20073;-79
2022/08/21 06:00:47;;;;;;;10.90;7.85;;;27.60;67.60;;;;;;4979524;28;20038;-77
2022/08/21 06:03:23;;;;;;;11.77;7.32;;;27.60;67.70;;;;;;4978717;28;20029;-77
2022/08/21 06:05:49;;;;;;;10.68;8.02;;;27.50;67.80;;;;;;4995344;28;20027;-78
2022/08/21 06:08:16;;;;;;;8.45;6.90;;;27.40;67.90;;;;;;4979277;28;20034;-76
2022/08/21 06:10:43;;;;;;;9.98;7.38;;;27.30;68.10;;;;;;4979544;28;20038;-78
2022/08/21 06:13:09;;;;;;;12.43;8.80;;;27.40;67.80;;;;;;4996724;28;20018;-82
2022/08/21 06:15:34;;;;;;;11.07;8.00;;;27.40;67.60;;;;;;4996483;28;20040;-78
2022/08/21 06:18:00;;;;;;;10.20;8.35;;;27.40;67.90;;;;;;4996576;28;20034;-79
2022/08/21 06:20:26;;;;;;;9.65;7.97;;;27.30;68.10;;;;;;4978680;28;20097;-83
2022/08/21 06:22:52;;;;;;;10.80;7.75;;;27.50;67.60;;;;;;4978018;28;20030;-79
2022/08/21 06:25:18;;;;;;;11.63;8.25;;;27.60;68.20;;;;;;4978124;28;20120;-76
2022/08/21 06:27:44;;;;;;;11.55;9.20;;;27.80;67.50;;;;;;4995782;28;20045;-78
2022/08/21 06:30:10;;;;;;;11.02;8.23;;;27.90;66.70;;;;;;4995742;28;20074;-78
2022/08/21 06:32:36;;;;;;;9.20;7.90;;;28.10;67.00;;;;;;4995949;28;20593;-78
2022/08/21 06:35:03;;;;;;;10.43;8.85;;;28.20;66.20;;;;;;4978781;28;20037;-77
2022/08/21 06:37:28;;;;;;;9.75;8.75;;;28.00;66.80;;;;;;4996008;28;20073;-78
2022/08/21 06:39:54;;;;;;;10.27;7.72;;;27.80;66.70;;;;;;4977709;28;20489;-76
2022/08/21 06:42:20;;;;;;;9.80;8.40;;;27.60;67.00;;;;;;4977159;28;20069;-79
2022/08/21 06:44:49;;;;;;;9.85;8.60;;;27.60;67.10;;;;;;4978524;28;20026;-80
2022/08/21 06:47:15;;;;;;;10.02;8.48;;;27.70;67.00;;;;;;4996088;28;20105;-76
2022/08/21 06:49:41;;;;;;;10.30;8.52;;;27.80;66.80;;;;;;4995699;28;20034;-81
2022/08/21 06:52:13;;;;;;;11.07;8.57;;;27.70;67.50;;;;;;4995706;28;20389;-81
2022/08/21 06:54:40;;;;;;;11.93;9.40;;;27.70;67.30;;;;;;4978243;28;20106;-75
2022/08/21 06:57:06;;;;;;;9.70;8.40;;;27.70;67.00;;;;;;4995985;28;20030;-76
2022/08/21 06:59:32;;;;;;;11.05;8.48;;;27.90;66.60;;;;;;4994881;28;20041;-77
2022/08/21 07:01:59;;;;;;;13.20;7.50;;;28.00;66.70;;;;;;4995580;28;20033;-78
2022/08/21 07:04:25;;;;;;;11.45;8.30;;;28.10;66.10;;;;;;4977838;28;20053;-79
2022/08/21 07:06:50;;;;;;;9.25;8.25;;;28.10;66.40;;;;;;4995549;28;20035;-82
2022/08/21 07:09:16;;;;;;;10.20;7.78;;;27.90;66.40;;;;;;4977586;28;20031;-83
2022/08/21 07:11:44;;;;;;;8.38;7.43;;;27.80;66.60;;;;;;4978348;28;20031;-80
2022/08/21 07:14:09;;;;;;;11.13;8.02;;;27.70;66.70;;;;;;4978593;28;20022;-82
2022/08/21 07:16:35;;;;;;;12.88;7.80;;;27.60;67.10;;;;;;4978155;28;20033;-77
2022/08/21 07:19:01;;;;;;;8.73;7.75;;;27.60;67.50;;;;;;4978055;28;20030;-76
2022/08/21 07:21:26;;;;;;;10.05;8.95;;;27.70;67.30;;;;;;4995390;28;20521;-82
2022/08/21 07:23:53;;;;;;;10.18;8.93;;;27.60;67.10;;;;;;4995714;28;20084;-82
2022/08/21 07:26:21;;;;;;;10.25;7.88;;;27.70;67.00;;;;;;4977955;28;20034;-81
2022/08/21 07:28:48;;;;;;;9.48;7.60;;;27.80;66.60;;;;;;4978190;28;20030;-78
2022/08/21 07:31:16;;;;;;;9.38;8.20;;;28.00;66.20;;;;;;4995460;28;20034;-79
2022/08/21 07:33:42;;;;;;;11.75;8.55;;;28.10;66.20;;;;;;4995126;28;20022;-77
2022/08/21 07:36:09;;;;;;;8.98;7.85;;;27.80;66.60;;;;;;4977622;28;20030;-90
2022/08/21 07:38:34;;;;;;;9.70;7.80;;;27.80;67.00;;;;;;4994735;28;20030;-77
2022/08/21 07:41:01;;;;;;;12.18;8.48;;;27.80;67.10;;;;;;4977613;28;20030;-83
2022/08/21 07:43:29;;;;;;;9.30;8.20;;;27.60;67.30;;;;;;4994962;28;20093;-79
2022/08/21 07:45:55;;;;;;;11.32;8.27;;;27.60;67.10;;;;;;4994912;28;20385;-76
2022/08/21 07:48:22;;;;;;;10.98;8.23;;;27.70;67.10;;;;;;4977064;28;20022;-79
2022/08/21 07:50:48;;;;;;;8.95;7.63;;;28.10;66.80;;;;;;4977219;28;20034;-77
2022/08/21 07:53:15;;;;;;;9.48;8.27;;;28.30;66.70;;;;;;4995071;28;20022;-80
2022/08/21 07:55:40;;;;;;;9.38;7.82;;;28.50;66.30;;;;;;4994633;28;20113;-84
2022/08/21 07:58:06;;;;;;;8.63;7.57;;;28.60;65.70;;;;;;4977373;28;20026;-78
2022/08/21 08:00:33;;;;;;;9.25;7.13;;;28.90;65.60;;;;;;4975448;28;20038;-76
2022/08/21 08:02:59;;;;;;;8.70;7.25;;;29.10;65.40;;;;;;4994528;28;20090;-77
2022/08/21 08:05:27;;;;;;;8.80;6.95;;;29.00;65.40;;;;;;4977206;28;20031;-83
2022/08/21 08:07:53;;;;;;;9.68;8.38;;;29.20;64.40;;;;;;4994746;28;20440;-81
2022/08/21 08:10:20;;;;;;;10.05;7.85;;;29.10;64.80;;;;;;4994765;28;20034;-77
2022/08/21 08:12:46;;;;;;;8.02;6.78;;;29.10;64.60;;;;;;4977353;28;20027;-84
2022/08/21 08:15:16;;;;;;;10.07;7.90;;;29.00;64.60;;;;;;4976846;28;20551;-86
2022/08/21 08:17:41;;;;;;;8.98;7.22;;;29.00;65.30;;;;;;4977704;28;20033;-76
2022/08/21 08:20:09;;;;;;;10.13;7.63;;;29.10;64.80;;;;;;4994140;28;20481;-77
2022/08/21 08:22:37;;;;;;;14.07;8.23;;;29.10;64.90;;;;;;4977485;28;20132;-81
2022/08/21 08:25:04;;;;;;;8.35;7.45;;;29.40;64.40;;;;;;5012286;28;20500;-81
2022/08/21 08:27:30;;;;;;;10.23;7.38;;;29.40;64.10;;;;;;4998157;28;20050;-80
2022/08/21 08:29:56;;;;;;;8.02;6.45;;;29.10;64.20;;;;;;4307585;28;10000681;-79
2022/08/21 08:32:23;;;;;;;9.52;6.80;;;28.90;64.90;;;;;;4995931;28;20040;-77
2022/08/21 08:34:51;;;;;;;9.88;7.60;;;28.80;65.80;;;;;;5007033;28;20034;-77
2022/08/21 08:37:19;;;;;;;9.73;7.25;;;29.00;64.90;;;;;;5002426;28;20018;-76
2022/08/21 08:39:45;;;;;;;7.82;6.70;;;28.70;65.00;;;;;;4996601;28;20034;-78
2022/08/21 08:42:37;;;;;;;9.38;7.00;;;28.70;65.50;;;;;;4996179;28;20033;-78
2022/08/21 08:45:06;;;;;;;10.55;8.02;;;28.80;65.30;;;;;;4991409;28;20052;-83
2022/08/21 08:47:34;;;;;;;10.80;7.25;;;28.70;65.60;;;;;;5005240;28;20034;-77
2022/08/21 08:50:12;;;;;;;11.10;7.90;;;28.60;65.10;;;;;;4994567;28;20425;-77
2022/08/21 08:52:47;;;;;;;8.45;7.55;;;28.50;65.70;;;;;;4973778;28;20041;-77
2022/08/21 08:55:23;;;;;;;9.38;7.43;;;28.60;65.60;;;;;;4992834;28;20034;-78
2022/08/21 08:57:51;;;;;;;11.05;6.90;;;28.70;65.70;;;;;;4661015;28;10000291;-83
2022/08/21 09:00:20;;;;;;;10.30;8.10;;;28.70;66.00;;;;;;4992999;28;20481;-79
2022/08/21 09:02:47;;;;;;;9.45;6.85;;;28.60;65.70;;;;;;4992722;28;20030;-80
2022/08/21 09:05:43;;;;;;;9.85;7.50;;;28.60;65.40;;;;;;4985038;28;20022;-87
2022/08/21 09:08:39;;;;;;;9.82;7.63;;;28.40;65.90;;;;;;4994485;28;20022;-79
2022/08/21 09:11:41;;;;;;;9.45;7.22;;;28.40;65.90;;;;;;5000173;28;20109;-76
2022/08/21 09:14:09;;;;;;;9.70;7.80;;;28.20;66.40;;;;;;5010171;28;20018;-80
2022/08/21 09:16:55;;;;;;;8.85;7.55;;;28.10;66.70;;;;;;4652966;28;9999889;-76
2022/08/21 09:19:43;;;;;;;8.98;7.50;;;28.30;66.60;;;;;;4999580;28;20032;-78
2022/08/21 09:22:30;;;;;;;9.43;7.90;;;28.50;66.60;;;;;;5012535;28;20081;-80
2022/08/21 09:25:32;;;;;;;9.10;7.30;;;28.80;65.50;;;;;;5006574;28;20116;-76
2022/08/21 09:27:58;;;;;;;8.57;7.50;;;29.20;65.30;;;;;;4594865;29;10000611;-75
2022/08/21 09:32:36;;;;;;;8.95;6.50;;;29.30;64.10;;;;;;5106834;27;20411;-77
2022/08/21 09:35:11;;;;;;;8.07;6.80;;;29.20;64.80;;;;;;5085928;28;20029;-78
2022/08/21 09:37:58;;;;;;;9.18;6.28;;;29.10;64.70;;;;;;5084764;28;20024;-78
2022/08/21 09:40:35;;;;;;;8.68;7.20;;;29.00;65.20;;;;;;5086544;28;20031;-78
2022/08/21 09:43:03;;;;;;;7.90;6.75;;;29.30;65.20;;;;;;5089374;28;20035;-79
2022/08/21 09:45:30;;;;;;;8.45;7.10;;;29.30;64.40;;;;;;5087213;28;20025;-79
2022/08/21 09:47:56;;;;;;;7.77;5.90;;;29.20;65.10;;;;;;4734241;27;10000114;-77
2022/08/21 09:50:27;;;;;;;8.60;6.00;;;29.00;65.20;;;;;;5088260;28;20073;-76
2022/08/21 09:52:59;;;;;;;9.20;6.45;;;29.00;65.30;;;;;;5119803;27;20039;-83
2022/08/21 09:58:32;;;;;;;8.87;6.13;;;29.30;64.90;;;;;;5102166;28;20097;-77
2022/08/21 10:01:00;;;;;;;24.50;22.52;;;29.40;65.00;;;;;;5069103;28;20128;-77
2022/08/21 10:03:26;;;;;;;7.00;5.78;;;29.70;64.90;;;;;;5069473;28;20029;-78
2022/08/21 10:06:08;;;;;;;6.50;5.68;;;29.70;63.40;;;;;;5102538;28;20592;-76
2022/08/21 10:08:36;;;;;;;6.70;5.50;;;29.50;64.80;;;;;;5064517;28;20033;-74
2022/08/21 10:11:06;;;;;;;10.02;6.35;;;29.60;64.60;;;;;;5087244;28;20024;-74
2022/08/21 10:14:16;;;;;;;6.78;5.20;;;29.80;64.20;;;;;;5088203;28;20033;-79
2022/08/21 10:16:51;;;;;;;7.45;5.05;;;30.00;64.20;;;;;;5081016;28;20036;-76
2022/08/21 10:19:25;;;;;;;7.50;5.25;;;30.30;63.70;;;;;;5081348;28;20048;-87
2022/08/21 10:22:05;;;;;;;6.55;5.40;;;30.40;63.60;;;;;;5068744;28;20052;-76
2022/08/21 10:24:41;;;;;;;9.52;5.53;;;30.50;63.00;;;;;;5081664;28;20034;-75
2022/08/21 10:27:36;;;;;;;6.78;5.72;;;30.20;63.10;;;;;;5103583;28;20478;-76
2022/08/21 10:30:02;;;;;;;7.30;5.70;;;29.80;64.40;;;;;;5077086;28;20061;-75
2022/08/21 10:32:38;;;;;;;6.00;4.90;;;29.90;64.30;;;;;;5086639;28;20088;-77
2022/08/21 10:35:21;;;;;;;5.93;5.22;;;30.10;64.00;;;;;;5084411;28;20778;-77
2022/08/21 10:38:12;;;;;;;6.65;5.38;;;30.30;63.40;;;;;;5073915;28;20025;-76
2022/08/21 10:40:50;;;;;;;6.97;5.63;;;30.40;62.80;;;;;;5102639;28;20024;-77
2022/08/21 10:43:32;;;;;;;8.43;5.50;;;30.40;63.90;;;;;;5081333;28;20060;-76
2022/08/21 10:46:04;;;;;;;7.03;5.55;;;30.50;63.30;;;;;;5052036;28;20803;-77
2022/08/21 10:48:57;;;;;;;7.43;6.22;;;30.60;63.10;;;;;;5055834;28;20021;-76
2022/08/21 10:51:44;;;;;;;6.85;4.85;;;30.80;62.60;;;;;;5052430;28;20091;-75
2022/08/21 10:54:18;;;;;;;6.68;5.97;;;31.10;62.80;;;;;;5072831;28;20020;-79
2022/08/21 10:56:50;;;;;;;10.45;5.32;;;31.00;62.70;;;;;;5060620;28;20095;-76
2022/08/21 10:59:28;;;;;;;6.28;5.05;;;31.00;62.50;;;;;;5069180;28;20032;-78
2022/08/21 11:02:30;;;;;;;7.90;5.28;;;31.00;62.10;;;;;;5058225;28;20025;-81
2022/08/21 11:05:06;;;;;;;6.72;5.28;;;30.80;62.40;;;;;;5051370;28;20472;-76
2022/08/21 11:07:54;;;;;;;7.03;5.32;;;31.00;62.70;;;;;;5065715;28;20391;-81
2022/08/21 11:10:23;;;;;;;9.70;5.45;;;31.20;62.80;;;;;;5069092;28;20090;-77
2022/08/21 11:13:06;;;;;;;6.65;4.88;;;31.40;62.20;;;;;;5070386;28;20119;-82
2022/08/21 11:15:55;;;;;;;6.65;5.25;;;31.70;62.20;;;;;;5066840;28;20021;-80
2022/08/21 11:18:35;;;;;;;7.45;5.20;;;31.70;61.40;;;;;;5056052;28;20130;-86
2022/08/21 11:21:13;;;;;;;;;;;31.50;62.10;;;;;;5072587;28;20048;-75
2022/08/21 11:23:47;;;;;;;9.43;5.40;;;31.40;60.90;;;;;;5067323;28;19982;-76
2022/08/21 11:26:35;;;;;;;7.35;5.70;;;31.10;62.10;;;;;;5072661;28;20040;-78
2022/08/21 11:29:19;;;;;;;6.28;5.18;;;30.90;62.30;;;;;;5063967;28;20025;-80
2022/08/21 11:32:03;;;;;;;7.72;5.75;;;30.70;63.10;;;;;;5075110;28;20054;-75
2022/08/21 11:34:51;;;;;;;8.13;6.03;;;30.80;63.00;;;;;;5067002;28;20039;-80
2022/08/21 11:37:31;;;;;;;8.15;5.80;;;31.00;62.30;;;;;;5069764;28;20399;-80
2022/08/21 11:40:18;;;;;;;7.03;5.95;;;31.20;62.30;;;;;;5071738;28;20056;-79
2022/08/21 11:43:00;;;;;;;8.32;5.53;;;31.50;62.00;;;;;;5072491;28;20067;-77
2022/08/21 11:45:28;;;;;;;7.25;5.57;;;31.80;61.30;;;;;;5070891;28;20028;-79
2022/08/21 11:48:07;;;;;;;7.05;5.57;;;31.70;61.40;;;;;;5068508;28;20121;-79
2022/08/21 11:50:37;;;;;;;7.38;5.45;;;31.90;61.20;;;;;;5053793;28;20036;-78
2022/08/21 11:53:10;;;;;;;7.30;6.00;;;32.00;61.20;;;;;;5071097;28;20036;-80
2022/08/21 11:55:56;;;;;;;8.48;5.38;;;32.00;61.00;;;;;;5063564;28;20032;-87
2022/08/21 11:58:36;;;;;;;7.95;5.78;;;32.20;60.80;;;;;;5065212;28;20035;-77
2022/08/21 12:01:16;;;;;;;7.67;5.97;;;32.20;60.20;;;;;;5072369;28;20025;-88
2022/08/21 12:03:57;;;;;;;8.45;4.88;;;32.20;60.90;;;;;;5071511;28;20086;-79
2022/08/21 12:06:33;;;;;;;7.80;5.15;;;32.10;60.70;;;;;;5072088;28;20036;-75
2022/08/21 12:09:31;;;;;;;8.85;5.63;;;32.00;60.80;;;;;;5072316;28;20020;-79
2022/08/21 12:12:12;;;;;;;7.25;4.72;;;31.80;61.40;;;;;;5051112;28;20037;-78
2022/08/21 12:14:46;;;;;;;7.13;6.00;;;32.00;61.10;;;;;;5078297;28;20024;-81
2022/08/21 12:17:34;;;;;;;8.95;5.47;;;32.30;60.80;;;;;;5091906;28;20035;-79
2022/08/21 12:20:14;;;;;;;9.30;5.85;;;32.40;61.10;;;;;;5091297;28;20047;-78
2022/08/21 12:22:47;;;;;;;5.97;5.07;;;32.50;60.90;;;;;;5067928;28;20428;-80
2022/08/21 12:25:19;;;;;;;6.00;4.97;;;32.50;60.90;;;;;;4719326;28;9999879;-77
2022/08/21 12:27:52;;;;;;;5.90;5.05;;;32.60;60.80;;;;;;5054212;28;20029;-79
2022/08/21 12:30:20;;;;;;;5.97;5.10;;;32.60;60.50;;;;;;5057536;28;20021;-81
2022/08/21 12:32:59;;;;;;;7.30;5.78;;;32.60;60.00;;;;;;5071461;28;20055;-81
2022/08/21 12:35:30;;;;;;;6.43;5.18;;;32.20;60.70;;;;;;5073603;28;20630;-81
2022/08/21 12:38:08;;;;;;;6.45;5.38;;;32.30;60.40;;;;;;5091921;28;20115;-80
2022/08/21 12:40:40;;;;;;;6.35;4.65;;;32.40;60.60;;;;;;5078026;28;20028;-84
2022/08/21 12:43:14;;;;;;;7.70;5.00;;;32.30;60.60;;;;;;4719932;28;9999911;-77
2022/08/21 12:45:46;;;;;;;6.55;5.45;;;32.30;60.90;;;;;;5060082;28;20482;-81
2022/08/21 12:48:33;;;;;;;6.80;4.90;;;32.30;60.30;;;;;;5084156;28;20131;-77
2022/08/21 12:51:13;;;;;;;9.10;4.90;;;32.30;60.30;;;;;;5070534;28;20089;-77
2022/08/21 12:53:45;;;;;;;6.75;4.97;;;32.30;60.30;;;;;;5067078;28;20060;-79
2022/08/21 12:56:14;;;;;;;6.90;4.82;;;32.00;61.20;;;;;;5050009;28;20056;-76
2022/08/21 12:58:46;;;;;;;6.57;4.97;;;32.00;61.40;;;;;;5068588;28;20059;-78
2022/08/21 13:01:30;;;;;;;5.72;4.55;;;32.10;60.80;;;;;;5069828;28;20024;-81
2022/08/21 13:04:00;;;;;;;7.72;4.60;;;32.00;61.10;;;;;;5071026;28;20031;-88